Friendswood, TX

07:45 CDT le 31 octobre 2014 (GMT -0500)
Clover | Change Station
CLOSE
Current Station
Aéroport
Location: Houston Clover,
Altitude: 43 ft
Stations météo à proximité

Alt. 43 ft 29.52 °N, 95.24 °W | Updated 52 minutes ago

Ciel dégagé
Ciel dégagé
60 ° F
Paraît 60 ° F
N
4
Vent Variable Vent de NO

Aujourd'hui
Haut(e) -- | Bas -- ° F
--% Risque de précip.
Hier
Haut(e) -- | Bas -- ° F
Precip. -- pouce
7:33 AM 6:35 PM
Premier quartier, 55% visible
Pression 30.14 pouce
Visibilité 10.0 Miles terrestres
Nuages Ciel dégagé
Point de rosée 55 ° F
Humidité 83%
Précipitations 0.00 pouce
Profondeur de la couche neigeuse Non disponible.
UV 0 sur 12
Pollen 4.60 sur 12
Qualité de l'air Non disponible.
Flu Activity Non disponible.
METAR KLVJ 311153Z AUTO 31003KT 10SM CLR 16/13 A3014 RMK AO2 SLP206 T01560128 10178 20150 53014

More Conditions Fewer Conditions

Pression 30.14 pouce
Visibilité 10.0 Miles terrestres
Nuages Ciel dégagé
Point de rosée 55 ° F
Humidité 83%
Précipitations 0.00 pouce
Profondeur de la couche neigeuse Non disponible.
UV 0 sur 12
Pollen 4.60 sur 12
Qualité de l'air Non disponible.
Flu Activity Non disponible.
METAR KLVJ 311153Z AUTO 31003KT 10SM CLR 16/13 A3014 RMK AO2 SLP206 T01560128 10178 20150 53014

More Conditions Fewer Conditions

10-Day Weather Forecast

Almanac

Astronomie

Oct. 31, 2014 Lever Coucher
Temps réel
Crépuscule civil
Crépuscule nautique
Crépuscule astronomique
Lune
Durée de lumière visible
Longueur du jour
Tomorrow will be .
, % of the Moon is Illuminated

Extrêmes aujourd'hui

State Highs State Lows

Community

WunderPhotos

Upload Photos

1,766,593 Photos téléchargées !

WunderBlogs® & News

Nearby

Qualité de l'air

  Qualité de l'air Indice de la qualité de l'air Polluant
Not available.

Épaisseur de neige

Station Depth Altitude

Activité sismique

Ville Distance Mag. Time & Date
Minimum magnitude displayed is 2.5.

Températures des eaux côtières

Lieu Température

Stations météo à proximité